Time;durP1;ratioP1;P1;durP2;ratioP2;P2;SDS_P1;SDS_P2;PMS_P1;PMS_P2;Temp;Humidity;BMP_temperature;BMP_pressure;BME280_temperature;BME280_humidity;BME280_pressure;Samples;Min_cycle;Max_cycle;Signal;HPM_P1;HPM_P2
2022/08/25 00:00:49;;;;;;;5.83;5.33;;;18.00;99.90;;;;;;5134527;27;20196;-53
2022/08/25 00:03:17;;;;;;;5.67;5.20;;;18.00;99.90;;;;;;5134408;27;20207;-53
2022/08/25 00:05:44;;;;;;;5.87;5.60;;;18.10;99.90;;;;;;5134629;27;20269;-53
2022/08/25 00:08:11;;;;;;;5.77;5.47;;;18.10;99.90;;;;;;5134739;27;20245;-53
2022/08/25 00:10:39;;;;;;;6.17;5.63;;;18.10;99.90;;;;;;5133303;27;20260;-53
2022/08/25 00:13:07;;;;;;;5.23;4.93;;;18.10;99.90;;;;;;5126486;27;20575;-53
2022/08/25 00:15:34;;;;;;;6.27;5.43;;;18.10;99.90;;;;;;5134638;27;20215;-53
2022/08/25 00:18:04;;;;;;;5.60;5.23;;;18.10;99.90;;;;;;5134349;27;20199;-53
2022/08/25 00:20:31;;;;;;;4.90;4.70;;;18.20;99.90;;;;;;5133372;27;20199;-54
2022/08/25 00:22:58;;;;;;;5.37;5.17;;;18.20;99.90;;;;;;5131977;27;20287;-53
2022/08/25 00:25:26;;;;;;;4.90;4.70;;;18.20;99.90;;;;;;5133839;27;20207;-53
2022/08/25 00:27:53;;;;;;;5.50;5.20;;;18.20;99.90;;;;;;5131290;27;20219;-53
2022/08/25 00:30:20;;;;;;;6.97;5.23;;;18.20;99.90;;;;;;5133340;27;20203;-53
2022/08/25 00:32:47;;;;;;;5.43;5.13;;;18.10;99.90;;;;;;5134147;27;20201;-53
2022/08/25 00:35:16;;;;;;;5.20;4.90;;;18.10;99.90;;;;;;5124903;27;20302;-53
2022/08/25 00:37:43;;;;;;;3.93;3.67;;;18.00;99.90;;;;;;5132266;27;20221;-54
2022/08/25 00:40:11;;;;;;;4.33;4.00;;;17.90;99.90;;;;;;5134091;27;20199;-54
2022/08/25 00:42:39;;;;;;;5.10;4.70;;;17.80;99.90;;;;;;5134335;27;20576;-53
2022/08/25 00:45:07;;;;;;;5.07;4.43;;;17.80;99.90;;;;;;5126239;27;20268;-53
2022/08/25 00:47:35;;;;;;;6.00;5.50;;;17.80;99.90;;;;;;5133778;27;20256;-53
2022/08/25 00:50:05;;;;;;;4.27;4.07;;;17.70;99.90;;;;;;5125869;27;20664;-53
2022/08/25 00:52:38;;;;;;;3.90;3.60;;;17.70;99.90;;;;;;5134025;27;20191;-53
2022/08/25 00:55:09;;;;;;;5.53;5.23;;;17.60;99.90;;;;;;5133607;27;20215;-53
2022/08/25 00:57:40;;;;;;;5.27;5.07;;;17.60;99.90;;;;;;5133692;27;20677;-53
2022/08/25 01:00:13;;;;;;;4.90;4.50;;;17.60;99.90;;;;;;5132949;27;20222;-53
2022/08/25 01:02:41;;;;;;;5.67;5.20;;;17.70;99.90;;;;;;5126436;27;20588;-53
2022/08/25 01:05:09;;;;;;;5.57;5.27;;;17.60;99.90;;;;;;5133305;27;20244;-53
2022/08/25 01:07:38;;;;;;;4.20;3.90;;;17.50;99.90;;;;;;5133922;27;20215;-53
2022/08/25 01:10:07;;;;;;;4.87;4.50;;;17.30;99.90;;;;;;5132592;27;20255;-53
2022/08/25 01:12:36;;;;;;;5.17;4.97;;;17.20;99.90;;;;;;5133351;27;20191;-53
2022/08/25 01:15:07;;;;;;;4.90;4.70;;;17.20;99.90;;;;;;5124137;27;20571;-53
2022/08/25 01:17:35;;;;;;;4.60;4.40;;;17.10;99.90;;;;;;5133263;27;20233;-53
2022/08/25 01:20:03;;;;;;;4.17;4.07;;;17.10;99.90;;;;;;5133028;27;20227;-53
2022/08/25 01:22:31;;;;;;;4.87;4.57;;;17.00;99.90;;;;;;5129932;27;20194;-53
2022/08/25 01:25:05;;;;;;;4.97;4.77;;;17.00;99.90;;;;;;5131478;27;20195;-53
2022/08/25 01:27:32;;;;;;;5.37;5.13;;;16.90;99.90;;;;;;5128065;27;20249;-53
2022/08/25 01:29:59;;;;;;;5.43;5.03;;;16.90;99.90;;;;;;5131503;27;20267;-53
2022/08/25 01:32:26;;;;;;;5.97;5.57;;;16.90;99.90;;;;;;5128701;27;20673;-54
2022/08/25 01:34:53;;;;;;;5.67;5.37;;;16.80;99.90;;;;;;5132761;27;20195;-53
2022/08/25 01:37:20;;;;;;;5.90;5.60;;;16.80;99.90;;;;;;5130677;27;20199;-53
2022/08/25 01:39:49;;;;;;;6.00;5.67;;;16.80;99.90;;;;;;5132997;27;20195;-53
2022/08/25 01:42:28;;;;;;;6.20;5.90;;;16.80;99.90;;;;;;5132961;27;20564;-53
2022/08/25 01:44:56;;;;;;;6.37;5.87;;;16.70;99.90;;;;;;5115447;27;20199;-53
2022/08/25 01:47:23;;;;;;;6.47;5.87;;;16.70;99.90;;;;;;5132880;27;20247;-53
2022/08/25 01:49:50;;;;;;;6.20;5.60;;;16.70;99.90;;;;;;5128889;27;20234;-54
2022/08/25 01:52:23;;;;;;;6.60;6.17;;;16.80;99.90;;;;;;5132864;27;20199;-53
2022/08/25 01:54:52;;;;;;;5.73;5.43;;;16.80;99.90;;;;;;5132861;27;20190;-53
2022/08/25 01:57:19;;;;;;;6.40;6.10;;;16.80;99.90;;;;;;5132915;27;20203;-54
2022/08/25 01:59:46;;;;;;;6.23;5.93;;;16.70;99.90;;;;;;5132696;27;20257;-53
2022/08/25 02:02:13;;;;;;;6.97;6.47;;;16.70;99.90;;;;;;5125733;27;20252;-53
2022/08/25 02:04:40;;;;;;;6.53;6.20;;;16.60;99.90;;;;;;5132327;27;20195;-53
2022/08/25 02:07:08;;;;;;;6.30;5.73;;;16.60;99.90;;;;;;5132580;27;20230;-53
2022/08/25 02:09:37;;;;;;;7.17;6.77;;;16.60;99.90;;;;;;5133068;27;20226;-53
2022/08/25 02:12:07;;;;;;;6.30;5.90;;;16.60;99.90;;;;;;5132621;27;20226;-53
2022/08/25 02:14:35;;;;;;;5.73;5.40;;;16.50;99.90;;;;;;5125410;27;20190;-54
2022/08/25 02:17:03;;;;;;;5.80;5.50;;;16.50;99.90;;;;;;5122137;28;20215;-53
2022/08/25 02:19:30;;;;;;;6.73;6.43;;;16.60;99.90;;;;;;5126708;28;20653;-53
2022/08/25 02:21:58;;;;;;;7.90;7.30;;;16.60;99.90;;;;;;5132714;27;20286;-53
2022/08/25 02:24:25;;;;;;;7.60;7.17;;;16.60;99.90;;;;;;5119898;27;20199;-53
2022/08/25 02:26:52;;;;;;;6.80;6.40;;;16.60;99.90;;;;;;5122103;28;20223;-54
2022/08/25 02:29:20;;;;;;;7.73;6.47;;;16.50;99.90;;;;;;5132608;27;20219;-53
2022/08/25 02:31:47;;;;;;;6.67;6.27;;;16.50;99.90;;;;;;5129070;27;20717;-53
2022/08/25 02:34:15;;;;;;;7.17;6.63;;;16.40;99.90;;;;;;5123929;27;20191;-53
2022/08/25 02:36:42;;;;;;;6.63;6.33;;;16.40;99.90;;;;;;5132293;28;20604;-53
2022/08/25 02:39:11;;;;;;;7.67;7.17;;;16.40;99.90;;;;;;5131273;27;20195;-53
2022/08/25 02:41:38;;;;;;;7.10;6.60;;;16.30;99.90;;;;;;5131476;27;20199;-53
2022/08/25 02:44:07;;;;;;;7.67;7.17;;;16.30;99.90;;;;;;5127346;27;20301;-54
2022/08/25 02:46:36;;;;;;;6.70;6.40;;;16.20;99.90;;;;;;5132136;27;20267;-53
2022/08/25 02:49:04;;;;;;;7.53;7.03;;;16.20;99.90;;;;;;5131596;28;20219;-53
2022/08/25 02:51:32;;;;;;;7.90;7.40;;;16.20;99.90;;;;;;5132330;27;20196;-53
2022/08/25 02:54:00;;;;;;;7.40;6.90;;;16.20;99.90;;;;;;5123157;27;20195;-53
2022/08/25 02:56:28;;;;;;;7.20;6.67;;;16.20;99.90;;;;;;5131981;27;20227;-53
2022/08/25 02:58:56;;;;;;;7.07;6.43;;;16.10;99.90;;;;;;5132357;27;20207;-53
2022/08/25 03:01:23;;;;;;;6.93;6.43;;;16.10;99.90;;;;;;5124357;27;20199;-53
2022/08/25 03:03:51;;;;;;;6.70;6.40;;;16.10;99.90;;;;;;5117206;27;20203;-53
2022/08/25 03:06:21;;;;;;;7.23;6.63;;;16.00;99.90;;;;;;5120449;27;20321;-53
2022/08/25 03:08:49;;;;;;;7.10;6.70;;;16.00;99.90;;;;;;5115754;28;20216;-53
2022/08/25 03:11:16;;;;;;;6.23;5.93;;;16.00;99.90;;;;;;5111516;28;20636;-53
2022/08/25 03:13:43;;;;;;;7.03;6.63;;;15.90;99.90;;;;;;5121390;28;20295;-53
2022/08/25 03:16:11;;;;;;;6.17;5.87;;;15.90;99.90;;;;;;5118036;27;20355;-53
2022/08/25 03:18:38;;;;;;;6.40;6.10;;;15.80;99.90;;;;;;5111821;28;20211;-53
2022/08/25 03:21:07;;;;;;;7.47;6.63;;;15.90;99.90;;;;;;5115032;28;20195;-53
2022/08/25 03:23:34;;;;;;;7.23;6.83;;;15.90;99.90;;;;;;5121528;27;20196;-53
2022/08/25 03:28:45;;;;;;;6.33;5.93;;;15.80;99.90;;;;;;5106563;27;20326;-53
2022/08/25 03:31:12;;;;;;;7.03;6.60;;;15.80;99.90;;;;;;5115118;27;20248;-53
2022/08/25 03:33:39;;;;;;;6.93;6.37;;;15.70;99.90;;;;;;5114994;27;20210;-53
2022/08/25 03:36:09;;;;;;;7.23;6.63;;;15.70;99.90;;;;;;5114941;27;20580;-53
2022/08/25 03:38:37;;;;;;;7.23;6.70;;;15.70;99.90;;;;;;5117668;27;20188;-53
2022/08/25 03:41:13;;;;;;;7.20;6.80;;;15.60;99.90;;;;;;5123370;27;20228;-53
2022/08/25 03:43:41;;;;;;;7.07;6.47;;;15.50;99.90;;;;;;5117292;27;20206;-54
2022/08/25 03:46:08;;;;;;;6.00;5.60;;;15.50;99.90;;;;;;5119962;27;20219;-53
2022/08/25 03:48:35;;;;;;;7.33;6.73;;;15.50;99.90;;;;;;5130184;27;20688;-53
2022/08/25 03:51:03;;;;;;;6.47;6.07;;;15.50;99.90;;;;;;5133896;27;20195;-53
2022/08/25 03:53:31;;;;;;;6.60;6.20;;;15.50;99.90;;;;;;5128037;27;20259;-53
2022/08/25 03:55:58;;;;;;;7.70;7.10;;;15.50;99.90;;;;;;5129220;27;20211;-53
2022/08/25 03:58:25;;;;;;;8.20;7.43;;;15.40;99.90;;;;;;5130048;27;20661;-53
2022/08/25 04:00:52;;;;;;;7.80;7.30;;;15.40;99.90;;;;;;5133652;27;20195;-53
2022/08/25 04:03:19;;;;;;;7.93;7.30;;;15.40;99.90;;;;;;5134260;27;20207;-53
2022/08/25 04:05:46;;;;;;;6.67;6.17;;;15.30;99.90;;;;;;5125707;27;20223;-53
2022/08/25 04:08:14;;;;;;;7.43;6.83;;;15.30;99.90;;;;;;5133586;27;20222;-53
2022/08/25 04:10:42;;;;;;;7.50;6.93;;;15.30;99.90;;;;;;5134758;27;20191;-53
2022/08/25 04:13:11;;;;;;;7.57;7.17;;;15.30;99.90;;;;;;5130523;27;20248;-53
2022/08/25 04:15:42;;;;;;;7.53;6.97;;;15.30;99.90;;;;;;5134725;27;20218;-53
2022/08/25 04:18:10;;;;;;;6.57;6.17;;;15.20;99.90;;;;;;5134749;27;20196;-53
2022/08/25 04:20:37;;;;;;;7.87;7.37;;;15.20;99.90;;;;;;5134533;27;20256;-54
2022/08/25 04:23:04;;;;;;;6.90;6.50;;;15.20;99.90;;;;;;5134464;27;20202;-53
2022/08/25 04:25:31;;;;;;;7.73;7.23;;;15.20;99.90;;;;;;5134511;27;20637;-53
2022/08/25 04:28:00;;;;;;;7.80;7.33;;;15.20;99.90;;;;;;5134585;27;20203;-53
2022/08/25 04:30:27;;;;;;;7.87;6.67;;;15.20;99.90;;;;;;5125761;27;20303;-53
2022/08/25 04:32:54;;;;;;;8.13;7.53;;;15.30;99.90;;;;;;5134183;27;20191;-53
2022/08/25 04:35:22;;;;;;;7.67;7.17;;;15.40;99.90;;;;;;5129549;27;20693;-53
2022/08/25 04:37:49;;;;;;;7.60;7.10;;;15.40;99.90;;;;;;5130355;27;20290;-53
2022/08/25 04:40:16;;;;;;;7.97;7.47;;;15.50;99.90;;;;;;5132704;27;20653;-53
2022/08/25 04:42:44;;;;;;;7.80;7.30;;;15.40;99.90;;;;;;5131463;27;20737;-53
2022/08/25 04:45:13;;;;;;;8.33;7.83;;;15.40;99.90;;;;;;5128804;27;20215;-53
2022/08/25 04:47:40;;;;;;;7.20;6.70;;;15.40;99.90;;;;;;5130646;27;20217;-54
2022/08/25 04:50:08;;;;;;;7.70;7.10;;;15.40;99.90;;;;;;5133273;27;20219;-53
2022/08/25 04:52:36;;;;;;;6.93;6.53;;;15.30;99.90;;;;;;5133909;27;20240;-53
2022/08/25 04:55:03;;;;;;;7.47;6.97;;;15.30;99.90;;;;;;5131206;27;20218;-53
2022/08/25 04:57:30;;;;;;;7.47;6.70;;;15.40;99.90;;;;;;5132631;27;20195;-53
2022/08/25 04:59:57;;;;;;;8.27;7.63;;;15.40;99.90;;;;;;5130407;27;20187;-53
2022/08/25 05:02:26;;;;;;;7.73;7.13;;;15.40;99.90;;;;;;5126724;27;20203;-53
2022/08/25 05:04:55;;;;;;;8.30;7.80;;;15.40;99.90;;;;;;5131121;27;20207;-53
2022/08/25 05:07:22;;;;;;;7.70;7.20;;;15.40;99.90;;;;;;5127872;27;20335;-53
2022/08/25 05:09:49;;;;;;;7.53;7.10;;;15.50;99.90;;;;;;5129268;27;20288;-53
2022/08/25 05:12:16;;;;;;;6.80;6.40;;;15.50;99.90;;;;;;5128160;27;20192;-54
2022/08/25 05:14:43;;;;;;;8.00;7.40;;;15.60;99.90;;;;;;5132891;27;20251;-53
2022/08/25 05:17:10;;;;;;;7.53;7.03;;;15.70;99.90;;;;;;5133697;27;20256;-53
2022/08/25 05:19:38;;;;;;;7.53;6.97;;;15.70;99.90;;;;;;5130201;27;20679;-53
2022/08/25 05:22:05;;;;;;;6.90;6.50;;;15.70;99.90;;;;;;5133366;27;20187;-53
2022/08/25 05:24:32;;;;;;;8.47;7.67;;;15.70;99.90;;;;;;5132512;27;20235;-53
2022/08/25 05:27:00;;;;;;;8.10;7.47;;;15.80;99.90;;;;;;5128653;27;20279;-53
2022/08/25 05:29:27;;;;;;;8.33;7.83;;;16.00;99.90;;;;;;5133378;27;20310;-53
2022/08/25 05:31:54;;;;;;;8.03;7.30;;;16.50;99.90;;;;;;5124192;27;20274;-53
2022/08/25 05:34:22;;;;;;;7.83;7.37;;;17.20;99.90;;;;;;5130416;27;20191;-53
2022/08/25 05:36:50;;;;;;;8.55;7.95;;;17.90;99.90;;;;;;5120655;27;20471;-53
2022/08/25 05:39:17;;;;;;;7.70;7.10;;;18.70;99.90;;;;;;5118275;27;20669;-53
2022/08/25 05:41:44;;;;;;;6.53;6.03;;;19.20;99.90;;;;;;5132311;27;20195;-53
2022/08/25 05:44:12;;;;;;;9.70;8.00;;;19.70;99.90;;;;;;5115876;27;20200;-53
2022/08/25 05:46:39;;;;;;;7.30;6.87;;;20.60;99.90;;;;;;5117164;27;20216;-53
2022/08/25 05:49:07;;;;;;;9.30;8.57;;;21.40;99.90;;;;;;5128222;27;20211;-53
2022/08/25 05:51:34;;;;;;;10.40;9.50;;;22.30;99.90;;;;;;5116685;27;20200;-53
2022/08/25 05:54:02;;;;;;;8.43;7.83;;;22.90;99.90;;;;;;5126549;27;20199;-53
2022/08/25 05:56:30;;;;;;;7.00;6.50;;;23.30;99.90;;;;;;5131467;27;20215;-53
2022/08/25 05:59:02;;;;;;;7.50;7.00;;;23.40;99.90;;;;;;5131044;27;20255;-53
2022/08/25 06:04:15;;;;;;;6.93;6.50;;;24.10;99.90;;;;;;5117395;28;20198;-53
2022/08/25 06:06:42;;;;;;;6.47;6.07;;;24.60;99.90;;;;;;5123790;27;20284;-53
2022/08/25 06:09:14;;;;;;;7.27;6.87;;;25.20;99.90;;;;;;5115664;27;20219;-53
2022/08/25 06:11:41;;;;;;;7.33;6.77;;;25.70;99.90;;;;;;5120321;27;20869;-54
2022/08/25 06:14:10;;;;;;;6.47;5.87;;;26.20;99.90;;;;;;5118098;27;20196;-54
2022/08/25 06:16:37;;;;;;;7.67;7.17;;;26.60;99.90;;;;;;5114741;28;20630;-53
2022/08/25 06:19:06;;;;;;;5.77;5.33;;;26.80;99.90;;;;;;5119528;27;20191;-53
2022/08/25 06:21:33;;;;;;;5.37;5.07;;;26.90;99.90;;;;;;5120474;28;20196;-55
2022/08/25 06:24:00;;;;;;;6.10;5.60;;;27.50;99.90;;;;;;5116992;28;20677;-53
2022/08/25 06:26:28;;;;;;;6.20;5.50;;;28.00;99.90;;;;;;5115178;28;20219;-54
2022/08/25 06:28:55;;;;;;;5.15;4.88;;;28.40;99.90;;;;;;5119691;27;20456;-54
2022/08/25 06:31:23;;;;;;;6.38;5.78;;;28.70;99.90;;;;;;5125946;27;20203;-54
2022/08/25 06:33:51;;;;;;;4.97;4.78;;;29.10;99.90;;;;;;5126701;27;20228;-54
2022/08/25 06:36:20;;;;;;;8.00;6.40;;;29.20;99.90;;;;;;5135420;27;20255;-54
2022/08/25 06:38:47;;;;;;;6.30;5.43;;;29.20;99.90;;;;;;5120883;27;20233;-54
2022/08/25 06:41:15;;;;;;;5.30;5.00;;;29.50;99.90;;;;;;5124901;27;20549;-54
2022/08/25 06:43:44;;;;;;;8.68;5.95;;;30.00;99.90;;;;;;5119509;27;20283;-54
2022/08/25 06:46:13;;;;;;;9.13;5.70;;;30.00;99.90;;;;;;5121538;28;20390;-54
2022/08/25 06:48:40;;;;;;;8.77;6.82;;;30.00;99.90;;;;;;5132341;27;20199;-54
2022/08/25 06:51:08;;;;;;;5.90;5.50;;;30.10;99.90;;;;;;5131926;27;20268;-54
2022/08/25 06:53:36;;;;;;;4.97;4.63;;;30.30;99.90;;;;;;5121639;27;20236;-54
2022/08/25 06:56:04;;;;;;;4.82;4.65;;;30.50;99.90;;;;;;5125486;28;20215;-54
2022/08/25 06:58:31;;;;;;;4.90;4.63;;;30.80;99.90;;;;;;5134202;27;20263;-53
2022/08/25 07:01:08;;;;;;;4.20;4.10;;;31.10;99.00;;;;;;5136026;27;20190;-53
2022/08/25 07:03:35;;;;;;;5.43;4.53;;;31.40;98.30;;;;;;5122285;27;20661;-53
2022/08/25 07:06:02;;;;;;;5.30;5.10;;;31.70;98.20;;;;;;5115541;28;20215;-53
2022/08/25 07:08:29;;;;;;;9.10;8.27;;;32.10;97.10;;;;;;5141065;27;20243;-54
2022/08/25 07:10:56;;;;;;;5.80;5.50;;;32.10;96.80;;;;;;5134684;27;20661;-54
2022/08/25 07:13:23;;;;;;;4.18;4.07;;;32.20;96.40;;;;;;5128483;27;20612;-54
2022/08/25 07:15:54;;;;;;;5.25;4.88;;;32.70;95.10;;;;;;5134060;27;20219;-54
2022/08/25 07:18:22;;;;;;;4.68;4.47;;;32.40;95.50;;;;;;5130050;27;20199;-54
2022/08/25 07:20:50;;;;;;;3.75;3.53;;;32.30;96.00;;;;;;5119732;27;20199;-54
2022/08/25 07:23:18;;;;;;;3.63;3.42;;;32.50;94.20;;;;;;5115038;28;20199;-54
2022/08/25 07:25:45;;;;;;;3.90;3.70;;;32.60;94.00;;;;;;5124240;27;20646;-54
2022/08/25 07:28:12;;;;;;;3.63;3.50;;;32.50;93.50;;;;;;5135554;27;20202;-53
2022/08/25 07:30:40;;;;;;;3.97;3.70;;;32.90;92.60;;;;;;5133558;27;20260;-53
2022/08/25 07:33:11;;;;;;;3.15;3.05;;;32.80;92.60;;;;;;5120144;27;20195;-53
2022/08/25 07:35:38;;;;;;;4.78;3.05;;;32.80;92.20;;;;;;5135438;27;20720;-54
2022/08/25 07:38:07;;;;;;;3.22;3.03;;;32.60;92.00;;;;;;5117227;27;20200;-53
2022/08/25 07:40:38;;;;;;;3.40;3.33;;;32.20;91.90;;;;;;5114885;28;20195;-54
2022/08/25 07:43:09;;;;;;;3.55;2.67;;;32.00;93.30;;;;;;5118743;27;20194;-54
2022/08/25 07:45:38;;;;;;;2.70;2.60;;;32.20;93.10;;;;;;5127001;27;20223;-54
2022/08/25 07:48:10;;;;;;;3.13;2.92;;;32.00;93.60;;;;;;5127336;27;20195;-54
2022/08/25 07:50:42;;;;;;;2.92;2.70;;;32.30;93.30;;;;;;5135161;27;20219;-54
2022/08/25 07:53:12;;;;;;;6.40;3.80;;;32.30;92.50;;;;;;5133372;27;20199;-54
2022/08/25 07:55:40;;;;;;;3.65;3.38;;;32.50;93.10;;;;;;5114851;28;20220;-54
2022/08/25 07:58:10;;;;;;;2.67;2.50;;;32.20;92.50;;;;;;5114604;28;20219;-54
2022/08/25 08:00:40;;;;;;;5.05;3.83;;;32.20;93.80;;;;;;5129236;27;20191;-54
2022/08/25 08:03:09;;;;;;;3.33;3.22;;;32.10;92.70;;;;;;5134597;27;20728;-54
2022/08/25 08:05:36;;;;;;;3.90;3.67;;;32.40;92.60;;;;;;5137689;27;20238;-54
2022/08/25 08:08:08;;;;;;;2.65;2.55;;;32.10;93.00;;;;;;5127018;27;20279;-54
2022/08/25 08:10:35;;;;;;;4.35;3.88;;;32.20;92.90;;;;;;5118294;27;20217;-54
2022/08/25 08:13:02;;;;;;;3.92;3.38;;;32.40;92.30;;;;;;5113151;27;20191;-54
2022/08/25 08:15:29;;;;;;;3.28;3.08;;;32.70;90.80;;;;;;5131443;27;20699;-54
2022/08/25 08:17:57;;;;;;;3.40;3.30;;;32.70;91.50;;;;;;5149560;27;20222;-54
2022/08/25 08:20:24;;;;;;;4.50;3.92;;;33.00;93.20;;;;;;5144546;27;20299;-54
2022/08/25 08:22:51;;;;;;;3.13;3.03;;;32.90;91.60;;;;;;5134759;27;20199;-54
2022/08/25 08:25:20;;;;;;;3.33;3.03;;;32.80;93.00;;;;;;5134461;27;20761;-54
2022/08/25 08:27:47;;;;;;;2.90;2.80;;;33.00;92.10;;;;;;5130082;27;20656;-53
2022/08/25 08:30:15;;;;;;;3.65;3.35;;;33.20;91.50;;;;;;5134224;27;20703;-54
2022/08/25 08:32:42;;;;;;;3.67;3.58;;;33.30;91.20;;;;;;5136125;27;20191;-54
2022/08/25 08:35:10;;;;;;;3.00;2.85;;;33.00;89.40;;;;;;5126806;27;20298;-54
2022/08/25 08:37:40;;;;;;;3.35;3.05;;;32.80;91.00;;;;;;5130591;27;20719;-54
2022/08/25 08:40:09;;;;;;;3.22;3.08;;;32.90;91.90;;;;;;5134505;27;20191;-54
2022/08/25 08:42:52;;;;;;;3.72;3.53;;;33.40;91.20;;;;;;5133164;27;20255;-54
2022/08/25 08:45:32;;;;;;;2.92;2.83;;;33.70;90.30;;;;;;5133831;27;20276;-54
2022/08/25 08:48:19;;;;;;;2.90;2.90;;;33.80;90.70;;;;;;5127266;27;20222;-54
2022/08/25 08:50:55;;;;;;;3.22;3.03;;;33.80;90.40;;;;;;5133727;27;20276;-54
2022/08/25 08:53:29;;;;;;;3.25;2.95;;;33.40;88.30;;;;;;5133629;27;20503;-54
2022/08/25 08:55:59;;;;;;;2.85;2.72;;;32.60;90.20;;;;;;5131342;27;20279;-54
2022/08/25 08:58:36;;;;;;;3.20;3.10;;;33.10;90.20;;;;;;5130949;27;20607;-54
2022/08/25 09:01:03;;;;;;;3.17;3.05;;;32.80;90.10;;;;;;5120301;27;20247;-54
2022/08/25 09:03:35;;;;;;;3.53;3.42;;;32.80;90.60;;;;;;5133590;27;20240;-54
2022/08/25 09:06:06;;;;;;;3.17;3.08;;;33.30;90.30;;;;;;5128357;27;20302;-54
2022/08/25 09:08:34;;;;;;;3.00;2.90;;;32.70;90.20;;;;;;5133388;27;20748;-54
2022/08/25 09:11:07;;;;;;;3.22;2.95;;;32.70;87.80;;;;;;5126897;27;20214;-54
2022/08/25 09:13:54;;;;;;;2.80;2.60;;;33.30;88.60;;;;;;5132938;27;20542;-54
2022/08/25 09:19:30;;;;;;;4.07;3.88;;;32.50;91.00;;;;;;5119857;27;20664;-54
2022/08/25 09:22:03;;;;;;;3.72;3.55;;;32.00;92.80;;;;;;5129942;27;20255;-53
2022/08/25 09:24:42;;;;;;;4.88;4.57;;;31.20;94.20;;;;;;5130862;27;20225;-53
2022/08/25 09:27:19;;;;;;;3.65;3.45;;;30.70;94.10;;;;;;5125281;27;20218;-53
2022/08/25 09:30:00;;;;;;;3.65;3.55;;;31.20;93.80;;;;;;5132336;27;20612;-53
2022/08/25 09:32:30;;;;;;;5.78;5.43;;;31.50;94.60;;;;;;5128256;27;20199;-54
2022/08/25 09:34:57;;;;;;;4.43;4.10;;;31.30;94.60;;;;;;5132675;27;20199;-53
2022/08/25 09:37:24;;;;;;;3.67;3.38;;;31.50;94.50;;;;;;5133020;27;20203;-54
2022/08/25 09:39:51;;;;;;;4.05;3.95;;;31.10;94.00;;;;;;5131448;27;20229;-54
2022/08/25 09:42:20;;;;;;;4.28;3.97;;;31.40;94.60;;;;;;5128200;27;20202;-53
2022/08/25 09:44:49;;;;;;;4.50;4.30;;;31.50;93.70;;;;;;5132167;27;20644;-54
2022/08/25 09:47:22;;;;;;;4.13;3.83;;;31.50;93.60;;;;;;5132625;27;20209;-54
2022/08/25 09:49:58;;;;;;;4.35;4.20;;;31.40;94.30;;;;;;5132813;27;20263;-54
2022/08/25 09:52:31;;;;;;;4.60;4.30;;;31.50;93.30;;;;;;5125906;27;20196;-54
2022/08/25 09:55:01;;;;;;;4.55;4.45;;;31.40;95.00;;;;;;5121623;27;20191;-53
2022/08/25 09:57:32;;;;;;;4.82;4.53;;;31.40;96.00;;;;;;5122877;27;20209;-53
2022/08/25 10:00:12;;;;;;;4.78;4.38;;;31.30;95.70;;;;;;5111639;27;20195;-53
2022/08/25 10:02:43;;;;;;;5.80;4.55;;;31.50;95.50;;;;;;5112014;27;20203;-53
2022/08/25 10:05:23;;;;;;;5.03;4.82;;;31.30;96.20;;;;;;5110924;27;20215;-54
2022/08/25 10:07:54;;;;;;;6.22;5.93;;;31.30;96.40;;;;;;5115675;27;20259;-54
2022/08/25 10:10:29;;;;;;;4.85;4.53;;;31.20;96.20;;;;;;5117770;27;20223;-54
2022/08/25 10:12:59;;;;;;;6.40;6.00;;;31.70;96.20;;;;;;5111194;28;20207;-54
2022/08/25 10:15:31;;;;;;;5.40;5.10;;;32.00;95.00;;;;;;5111587;28;20235;-54
2022/08/25 10:18:23;;;;;;;5.28;4.88;;;32.40;94.80;;;;;;5110668;28;20223;-54
2022/08/25 10:21:05;;;;;;;4.72;4.63;;;32.60;94.30;;;;;;5126981;28;20191;-54
2022/08/25 10:23:35;;;;;;;4.78;4.45;;;32.40;94.00;;;;;;5117450;27;20264;-54
2022/08/25 10:26:08;;;;;;;5.00;4.47;;;32.50;95.00;;;;;;5117390;28;20211;-54
2022/08/25 10:28:47;;;;;;;5.32;4.97;;;32.50;95.60;;;;;;5123102;28;20199;-54
2022/08/25 10:31:22;;;;;;;4.18;4.07;;;31.90;95.30;;;;;;5130085;27;20238;-54
2022/08/25 10:33:59;;;;;;;6.43;6.03;;;31.80;96.00;;;;;;5133857;27;20999;-54
2022/08/25 10:36:35;;;;;;;4.43;4.32;;;31.10;96.10;;;;;;5132746;27;20222;-54
2022/08/25 10:39:03;;;;;;;4.63;4.43;;;30.20;98.30;;;;;;5123745;27;20198;-54
2022/08/25 10:41:48;;;;;;;5.35;5.05;;;29.90;97.70;;;;;;5129922;27;20207;-54
2022/08/25 10:47:43;;;;;;;4.40;4.30;;;30.50;97.30;;;;;;5128217;27;20298;-54
2022/08/25 10:50:18;;;;;;;4.38;4.05;;;30.20;97.30;;;;;;5114400;27;20249;-54
2022/08/25 10:53:07;;;;;;;4.40;4.20;;;30.40;96.10;;;;;;5135607;27;20206;-54
2022/08/25 10:55:43;;;;;;;5.70;5.30;;;29.90;97.70;;;;;;5136075;27;20767;-54
2022/08/25 10:58:20;;;;;;;6.10;5.88;;;29.00;99.60;;;;;;5131200;27;20234;-54
2022/08/25 11:00:55;;;;;;;5.60;5.32;;;28.40;99.70;;;;;;5128587;27;20241;-54
2022/08/25 11:03:39;;;;;;;6.28;5.88;;;28.00;99.90;;;;;;5135484;27;20194;-54
2022/08/25 11:06:14;;;;;;;5.72;5.43;;;27.60;99.90;;;;;;5131340;27;20218;-54
2022/08/25 11:08:46;;;;;;;5.88;5.57;;;27.50;99.90;;;;;;5133362;27;20525;-56
2022/08/25 11:11:23;;;;;;;5.32;4.93;;;27.70;99.90;;;;;;5133926;27;20250;-55
2022/08/25 11:13:54;;;;;;;5.40;5.10;;;27.90;99.90;;;;;;5135391;27;20237;-54
2022/08/25 11:16:33;;;;;;;4.75;4.55;;;28.00;99.90;;;;;;5135294;27;20223;-54
2022/08/25 11:19:05;;;;;;;5.82;5.28;;;27.70;99.90;;;;;;5133994;27;20813;-54
2022/08/25 11:21:41;;;;;;;4.75;4.55;;;27.40;99.90;;;;;;5122284;27;20335;-54
2022/08/25 11:24:21;;;;;;;5.47;5.13;;;27.40;99.90;;;;;;5125229;27;20231;-54
2022/08/25 11:26:56;;;;;;;5.97;5.57;;;27.30;99.90;;;;;;5120281;27;20215;-54
2022/08/25 11:29:29;;;;;;;5.57;5.25;;;27.30;99.90;;;;;;5125082;27;20195;-54
2022/08/25 11:32:00;;;;;;;3.75;3.65;;;27.20;99.90;;;;;;5128453;27;20222;-54
2022/08/25 11:34:31;;;;;;;4.53;4.30;;;27.20;99.90;;;;;;5125385;27;20199;-54
2022/08/25 11:37:06;;;;;;;4.40;4.10;;;27.40;99.90;;;;;;5123883;27;20219;-54
2022/08/25 11:40:04;;;;;;;4.32;4.20;;;27.40;99.90;;;;;;5134061;27;20189;-54
2022/08/25 11:42:45;;;;;;;3.80;3.80;;;27.40;99.90;;;;;;5101030;27;20502;-54
2022/08/25 11:45:25;;;;;;;3.30;3.10;;;27.40;99.90;;;;;;5118636;27;20243;-54
2022/08/25 11:48:09;;;;;;;6.63;4.30;;;27.60;99.90;;;;;;5123184;27;20257;-54
2022/08/25 11:50:55;;;;;;;3.50;3.40;;;27.60;99.90;;;;;;5129094;27;20256;-54
2022/08/25 11:53:26;;;;;;;4.32;4.13;;;27.60;99.90;;;;;;5131617;27;20203;-54
2022/08/25 11:55:55;;;;;;;4.70;4.38;;;27.50;99.90;;;;;;5130063;27;20265;-54
2022/08/25 11:58:46;;;;;;;4.60;4.35;;;27.70;99.90;;;;;;5130374;27;20206;-54
2022/08/25 12:01:50;;;;;;;4.22;4.13;;;27.60;99.90;;;;;;5124655;27;20222;-54
2022/08/25 12:04:34;;;;;;;3.65;3.55;;;27.50;99.90;;;;;;5118763;27;20722;-54
2022/08/25 12:07:28;;;;;;;4.15;3.95;;;27.50;99.90;;;;;;5113200;27;20207;-54
2022/08/25 12:10:19;;;;;;;4.00;3.88;;;27.50;99.90;;;;;;5112256;28;20207;-54
2022/08/25 12:13:23;;;;;;;3.40;3.40;;;27.70;99.90;;;;;;5112696;28;20235;-54
2022/08/25 12:16:01;;;;;;;3.75;3.67;;;27.60;99.90;;;;;;5114517;27;20726;-54
2022/08/25 12:18:42;;;;;;;3.95;3.85;;;27.40;99.90;;;;;;5133157;27;20209;-55
2022/08/25 12:21:15;;;;;;;7.03;4.32;;;27.40;99.90;;;;;;5121787;27;20252;-54
2022/08/25 12:23:44;;;;;;;4.20;4.10;;;27.40;99.90;;;;;;5123217;27;20570;-54
2022/08/25 12:26:21;;;;;;;4.00;3.90;;;27.20;99.90;;;;;;5130423;27;20215;-54
2022/08/25 12:28:58;;;;;;;4.20;3.88;;;27.20;99.90;;;;;;5126860;27;20203;-54
2022/08/25 12:31:46;;;;;;;3.97;3.88;;;27.20;99.90;;;;;;5125087;27;20305;-55
2022/08/25 12:34:31;;;;;;;4.20;4.00;;;27.20;99.90;;;;;;5129851;27;20306;-54
2022/08/25 12:37:02;;;;;;;4.82;4.72;;;27.30;99.90;;;;;;5133586;27;20219;-54
2022/08/25 12:39:33;;;;;;;4.95;3.95;;;27.30;99.90;;;;;;5129462;27;20248;-54
2022/08/25 12:42:04;;;;;;;4.00;3.90;;;27.20;99.90;;;;;;5133377;27;20187;-54
2022/08/25 12:44:41;;;;;;;4.07;3.85;;;27.20;99.90;;;;;;5125679;27;20610;-54
2022/08/25 12:47:27;;;;;;;4.35;4.22;;;27.30;99.90;;;;;;5132167;27;20272;-54
2022/08/25 12:50:21;;;;;;;3.67;3.58;;;27.10;99.90;;;;;;5129959;27;20652;-54
2022/08/25 12:52:48;;;;;;;3.38;3.15;;;27.10;99.90;;;;;;5130690;27;20219;-54
2022/08/25 12:55:16;;;;;;;3.15;3.05;;;27.10;99.90;;;;;;5128917;27;20302;-54
2022/08/25 12:57:46;;;;;;;3.33;3.22;;;27.10;99.90;;;;;;5127282;27;20207;-54
2022/08/25 13:00:20;;;;;;;3.10;3.00;;;27.10;99.90;;;;;;5128090;27;20240;-54
2022/08/25 13:03:04;;;;;;;3.60;3.50;;;27.20;99.90;;;;;;5125668;27;20195;-54
2022/08/25 13:06:02;;;;;;;3.25;3.15;;;27.10;99.90;;;;;;5119213;27;20277;-54
2022/08/25 13:08:54;;;;;;;3.13;3.03;;;27.10;99.90;;;;;;5110643;27;20276;-54
2022/08/25 13:11:30;;;;;;;3.38;3.35;;;27.10;99.90;;;;;;5116918;27;20276;-54
2022/08/25 13:14:06;;;;;;;3.28;3.17;;;27.10;99.90;;;;;;5113271;27;20199;-54
2022/08/25 13:16:33;;;;;;;2.28;2.28;;;27.10;99.90;;;;;;5111488;27;20680;-54
2022/08/25 13:19:05;;;;;;;3.17;2.90;;;27.10;99.90;;;;;;5112106;27;20188;-54